Velovelo
Português Nederlands 日本語 中文
Español English čeština slovenčina
русский italiano polski norsk
français Deutsch svenska عربي
 
 前一页
 推荐本章
 打印文章
 ---> L’Etape du Tour de l’Ain 2008 : Résultat du 105 km

ClasNom Prénom.Cat.......Temps........Ecart
1  CHEVALIER Pierre   C   3:06:58  33,695 km/h 
2  ANDEREGG Andréas   A   3:07:15   0:00:17 
3  CHAVANON Jean Luc   C   3:13:14   0:06:16 
4  BINCHET Claude   A   3:15:42   0:08:44 
5  BROCHOT Vincent   B   3:15:42   0:08:44 
6  BABYTCHEF Martial   C   3:15:42   0:08:44 
7  MARGUERAT Eric   B   3:16:54   0:09:56 
8  BOUVIER Richard   B   3:16:54   0:09:56 
9  BAROU Cyrille   A   3:16:54   0:09:56 
10  LUCAS Jacques   D   3:16:54   0:09:56 
11  CERESA Jean François   C   3:17:01   0:10:03 
12  BERGNA Sébastien   A   3:18:03   0:11:05 
13  JEANTET Guillaume   A   3:19:15   0:12:17 
14  HILAIRE Raphaêl   B   3:20:11   0:13:13 
15  PITTET Grégory   A   3:20:29   0:13:31 
16  CALVI Bruno   D   3:20:29   0:13:31 
17  PERRIN Jean Luc   D   3:20:29   0:13:31 
18  JOIRON Eric   D   3:20:29   0:13:31 
19  BRUTTOMESSO Daniel   C   3:21:06   0:14:08 
20  MOLLIER CARROZ Gilbert   C   3:21:06   0:14:08 
21  GIARDI François   D   3:21:06   0:14:08 
22  GOYFFON Xavier   A   3:21:06   0:14:08 
23  SCHMIT Patrick   C   3:21:06   0:14:08 
24  VIAL Pascal   D   3:21:06   0:14:08 
25  BRIAND Dominique   D   3:21:06   0:14:08 
26  LUTZ Yannick   B   3:21:06   0:14:08 
27  BEGON Tony   B   3:21:06   0:14:08 
28  LAURIN Bruno   C   3:21:06   0:14:08 
29  DAVID RAISON Thierry   C   3:21:06   0:14:08 
30  DUBOIS Romain   A   3:25:24   0:18:26 
31  BLANCHOT Frédéric   C   3:25:24   0:18:26 
32  ROCHEDY Philippe   C   3:25:24   0:18:26 
33  DUPOUHET Alexandre   A   3:25:24   0:18:26 
34  PERRET Alexandre   A   3:25:24   0:18:26 
35  CARRIER Gérald   B   3:25:50   0:18:52 
36  RAFFIN Olivier   B   3:25:57   0:18:59 
37  DAGUET Denis   B   3:25:57   0:18:59 
38  PETIT Alian   C   3:25:57   0:18:59 
39  LECHARPENTIER Gilbert   C   3:28:39   0:21:41 
40  PICHON Dominique   C   3:28:39   0:21:41 
41  MULLER Jan   B   3:28:39   0:21:41 
42  JAILLARD Julien   A   3:28:39   0:21:41 
43  TARDY Patrice   D   3:28:39   0:21:41 
44  PEILLON Jean Noêl   D   3:28:58   0:22:00 
45  PLUMEY Claude   E   3:30:05   0:23:07 
46  GONZALEZ Jean Paul   C   3:30:20   0:23:22 
47  BOINON Sylvain   B   3:30:20   0:23:22 
48  MACHOUD Pascal   C   3:30:20   0:23:22 
49  SOGNO Yvain   A   3:31:36   0:24:38 
50  MAGNIN Christian   B   3:31:36   0:24:38 
51  VIE Thierry   C   3:31:36   0:24:38 
52  CHARRE Pascal   B   3:31:36   0:24:38 
53  FORMISARO Philippe   C   3:31:36   0:24:38 
54  MICHALON Hervé   B   3:32:06   0:25:08 
55  LE JEUNE Sylvain   B   3:32:06   0:25:08 
56  CORNU Maurice   D   3:32:06   0:25:08 
57  PATTINIER Manuel   C   3:32:18   0:25:20 
58  HUMBERT Christian   C   3:32:18   0:25:20 
59  DUMOLLARD Christian   C   3:32:18   0:25:20 
60  CHAUTEMPS Eric   B   3:32:18   0:25:20 
61  PERRET Philippe   C   3:33:18   0:26:20 
62  COISY Steve   B   3:33:37   0:26:39 
63  LUZET Eric   B   3:33:37   0:26:39 
64  RENAUD Rodolphe   A   3:33:38   0:26:40 
65  LUCAT Steeve   A   3:33:49   0:26:51 
66  DIBETTA François   B   3:35:15   0:28:17 
67  FIRMIN Thierry   C   3:35:15   0:28:17 
68  PINATEL Antoine   D   3:35:15   0:28:17 
69  SERTHELON Damien   B   3:35:15   0:28:17 
70  JOLIBOIS Didier   D   3:35:15   0:28:17 
71  DEWAELE Michel   C   3:35:15   0:28:17 
72  FUCINA Eric   C   3:35:31   0:28:33 
73  GIRARD Hervé   C   3:35:40   0:28:42 
74  LAVEUVE Eric   C   3:35:54   0:28:56 
75  JACQUET Philippe   C   3:36:12   0:29:14 
76  DAUVERCHIN David   B   3:36:12   0:29:14 
77  BOUVARD Gilles   C   3:36:12   0:29:14 
78  REYBIER Jean Michel   B   3:38:06   0:31:08 
79  SERRE Jean Yves   C   3:38:30   0:31:32 
80  CUISIN Eric   C   3:39:39   0:32:41 
81  FOULON Archibald   A   3:59:51   0:52:53 
82  LAURENT Alain   D   3:59:51   0:52:53 
83  SIBILLE Jean Michel   B   3:40:07   0:33:09 
84  BARDIN Philippe   D   3:40:07   0:33:09 
85  EXCOFFIER Claude   D   3:40:07   0:33:09 
86  VIELET Francis   C   3:40:07   0:33:09 
87  PEGEOT Vincent   B   3:40:07   0:33:09 
88  DUBOCLARD Gilles   C   3:41:05   0:34:07 
89  BRANCHE Patrick   C   3:41:05   0:34:07 
90  LOGEZ Guillaume   A   3:42:00   0:35:02 
91  MOUROUX Bernard   D   3:42:00   0:35:02 
92  GRAND CLEMENT Christian   E   3:42:31   0:35:33 
93  RIGAUD Daniel   B   3:42:52   0:35:54 
94  LEPINE Jérémy   A   3:42:52   0:35:54 
95  DELMAERE Fred   B   3:43:30   0:36:32 
96  DEGOIX Raphaël   B   3:43:51   0:36:53 
97  BORDET Bernard   D   3:44:23   0:37:25 
98  DEBLOIS Eric   B   3:44:23   0:37:25 
99  SINGER Tobias   A   3:44:40   0:37:42 
100  PAGNIEZ Martial   C   3:45:41   0:38:43 
101  PEGON Arnaud   B   3:45:54   0:38:56 
102  RUFO Xavier   A   3:45:54   0:38:56 
103  BALTAZARD Jean   E   3:46:08   0:39:10 
104  DERPLANCHES Frédéric   B   3:46:08   0:39:10 
105  HAURAY Dominique   D   3:46:21   0:39:23 
106  VAUTRIN Christian   D   3:46:21   0:39:23 
107  COSTA Eric   C   3:46:39   0:39:41 
108  SCHEIDECKER Raphaël   B   3:46:39   0:39:41 
109  PERRAULT Xavier   C   3:46:39   0:39:41 
110  PELISSON Olivier   B   3:46:39   0:39:41 
111  COURBET Gérard   C   3:46:53   0:39:55 
112  MUSSET Bernard   D   3:47:01   0:40:03 
113  MUGNIER Rolland   C   3:47:29   0:40:31 
114  PIARD Emmanuel   B   3:47:35   0:40:37 
115  GIRIN Bernard   D   3:47:35   0:40:37 
116  LEFEBVRE David   B   3:48:04   0:41:06 
117  SALVI Maurice   E   3:48:04   0:41:06 
118  DORIER Eric   B   3:48:45   0:41:47 
119  JANUS Claude   E   3:48:45   0:41:47 
120  CHARLEMAGNE Claude   D   3:49:23   0:42:25 
121  LEBEAU Serge   B   3:49:23   0:42:25 
122  JACQUET Benjamin   C   3:49:33   0:42:35 
123  RUDEZ Olivier   A   3:49:33   0:42:35 
124  MAYONOVE Nicolas   B   3:49:23   0:42:25 
125  MASSON Norbert   B   3:49:47   0:42:49 
126  GAUTHIER Régis   B   3:50:02   0:43:04 
127  FAYOLLE Jean Michel   B   3:50:26   0:43:28 
128  GUILLEMIN Roland   C   3:50:26   0:43:28 
129  ANTOINE Jacques   E   3:50:26   0:43:28 
130  GODIN Jacky   D   3:50:26   0:43:28 
131  PRHD’HOMME Fabrice   B   3:50:26   0:43:28 
132  PIERRAZZI Daniel   C   3:51:18   0:44:20 
133  VUITTRNEZ Franck   B   3:51:43   0:44:45 
134  MUGNIER Roland   C   3:51:43   0:44:45 
135  ENAULT Thierry   D   3:52:13   0:45:15 
136  PAILHA Denis   C   3:52:35   0:45:37 
137  GIUDICI Pierre Ange   D   3:52:35   0:45:37 
138  DUPRE Julien   A   3:53:06   0:46:08 
139  BATTA Yannick   A   3:53:06   0:46:08 
140  RICHARD Christian   D   3:53:29   0:46:31 
141  DITZLER Camille   D   3:53:29   0:46:31 
142  MERCIER Jean Claude   D   3:53:46   0:46:48 
143  LEMARIE Frédéric   C   3:54:35   0:47:37 
144  PENVEN Gwenael   B   3:54:35   0:47:37 
145  ENJALBERT Jean Yves   B   3:54:35   0:47:37 
146  DURAFFOURG Michel   C   3:55:32   0:48:34 
147  ANTONIALI Michel   D   3:55:58   0:49:00 
148  POUSSIN Eric   C   3:55:58   0:49:00 
149  PERRIN Anthony   A   3:56:14   0:49:16 
150  COLIN Gérald   B   3:56:14   0:49:16 
151  NATIVEL Pascal   B   3:57:07   0:50:09 
152  GUICHARDON Georges   D   3:57:07   0:50:09 
153  CAVORET Serge   D   3:57:24   0:50:26 
154  GAUDILLERE Frédéric   B   3:57:24   0:50:26 
155  BRETA Simon   D   3:57:24   0:50:26 
156  PONS Olivier   C   3:57:43   0:50:45 
157  JACQUET Stéphane   C   3:57:43   0:50:45 
158  BARASSI Christophe   C   3:58:29   0:51:31 
159  ORLANDINI Robert   C   3:58:29   0:51:31 
160  PEPKE Pep   D   3:58:29   0:51:31 
161  GANDELIN Jérôme   C   3:58:29   0:51:31 
162  YON Philippe   C   3:58:29   0:51:31 
163  GENTEUR Thierry   C   3:58:49   0:51:51 
164  ROCHARD Gérard   E   3:58:49   0:51:51 
165  ROBERTSAWE Bridget   G   3:59:54   0:52:56 
166  MAURICE Michel   D   4:00:12   0:53:14 
167  MASNADA Gilles   C   4:00:12   0:53:14 
168  CADORET Antoine   B   4:00:49   0:53:51 
169  DUTANG Gérard   E   4:01:20   0:54:22 
170  SAULNIER Jean Christophe   C   4:01:31   0:54:33 
171  BISSARDON Pierre   D   4:01:31   0:54:33 
172  CHATAIN Luc   C   4:01:31   0:54:33 
173  GROSS Gérard   C   4:01:31   0:54:33 
174  LABALME Fabrice   C   4:01:31   0:54:33 
175  JACQUOT Roger   E   4:02:27   0:55:29 
176  MOINE Dominique   E   4:02:27   0:55:29 
177  GAY Alain   D   4:02:27   0:55:29 
178  BOURGEOIS Jacky   G   4:02:27   0:55:29 
179  DECHILLY Francis   C   4:02:49   0:55:51 
180  GILI Jérôme   B   4:03:25   0:56:27 
181  LIGER Eric   C   4:03:25   0:56:27 
182  CONDEMINE Raymond   C   4:04:05   0:57:07 
183  NOWACK Philippe   C   4:04:32   0:57:34 
184  CHIRAT Alain   C   4:04:45   0:57:47 
185  ROUSSELET Gérard   D   4:05:03   0:58:05 
186  BARTOLLET Jean Marc   C   4:05:23   0:58:25 
187  DUCLOS Christian   C   4:05:46   0:58:48 
188  DELAVAY Anthony   B   4:05:46   0:58:48 
189  NIOGRET Corinne   G   4:06:04   0:59:06 
190  THERISOD Daniel   D   4:06:28   0:59:30 
191  CHARMONT Jean Pierre   E   4:06:28   0:59:30 
192  GRITTI Serge   C   4:06:28   0:59:30 
193  LASSARA Alain   D   4:06:40   0:59:42 
194  PICHET Jean Marc   E   4:07:09   1:00:11 
195  RINALDI Stéphane   B   4:07:38   1:00:40 
196  DEMONTOY Michel   C   4:07:38   1:00:40 
197  JEANNENEZ Jean paul   D   4:08:07   1:01:09 
198  DUCLOS Daniel   E   4:08:07   1:01:09 
199  DESHAYES Claude   G   4:08:28   1:01:30 
200  VINCENT Dominique   D   4:09:04   1:02:06 
201  RIVOLLIER Raphaêl   B   4:09:04   1:02:06 
202  TAPONARD Gilles   D   4:09:40   1:02:42 
203  VANDENBON Guy   C   4:10:11   1:03:13 
204  VARESANO Jean-Louis   B   4:10:20   1:03:22 
205  ALBERT Michel   D   4:10:20   1:03:22 
206  THOMASSET Laure   F   4:10:20   1:03:22 
207  MELLON Michel   D   4:10:42   1:03:44 
208  DELVA Jackie   G   4:10:42   1:03:44 
209  SEGAUD Christophe   B   4:10:42   1:03:44 
210  CLEMENT Patrick   B   4:10:42   1:03:44 
211  HONTELEY Joost   C   4:11:51   1:04:53 
212  BOCQUET Jean Luc   E   4:11:51   1:04:53 
213  MAES Valérie   F   4:11:51   1:04:53 
214  DAGUET Gaston   E   4:11:51   1:04:53 
215  PUGET Pierre   C   4:11:51   1:04:53 
216  RUBATIER Jean Marc   C   4:12:33   1:05:35 
217  POINT Frédéric   C   4:12:33   1:05:35 
218  PLANTIN Bernard   E   4:12:33   1:05:35 
219  SANGIORGIO Jean Marc   E   4:14:03   1:07:05 
220  MAGNIEN Frédéric   C   4:14:03   1:07:05 
221  LAMBERT Pierre   D   4:14:40   1:07:42 
222  THABUIS Jacques   E   4:15:32   1:08:34 
223  MEUNIER François   D   4:15:32   1:08:34 
224  DUVAL Jean Michel   C   4:15:32   1:08:34 
225  LASLAZ Pierre   C   4:15:56   1:08:58 
226  PERRISSOUD Daniel   E   4:16:52   1:09:54 
227  PARAMUCCHIO Didier   C   4:16:52   1:09:54 
228  SAVINA Claude   D   4:16:52   1:09:54 
229  MEHU Gilles   C   4:16:52   1:09:54 
230  SIBILLE Jean Christophe   A   4:17:28   1:10:30 
231  COLLANGE Philippe   B   4:17:28   1:10:30 
232  RIVOLLIER Patrice   B   4:17:28   1:10:30 
233  JARVIS Paul   C   4:18:31   1:11:33 
234  REGAD Lionel   C   4:18:31   1:11:33 
235  BERAUD Noël   D   4:18:49   1:11:51 
236  LARDELLIER Armand   E   4:21:12   1:14:14 
237  DUPLESSY Ghislain   C   4:21:12   1:14:14 
238  REYMOND Guy   E   4:21:12   1:14:14 
239  REBILLARD Jean Yves   E   4:22:17   1:15:19 
240  RENNA Patrick   C   4:23:39   1:16:41 
241  LEVROT Christian   D   4:23:39   1:16:41 
242  HURSTEL Vincent   C   4:24:07   1:17:09 
243  VANLAUWE Michel   D   4:24:07   1:17:09 
244  TRAGGIAI Jean   D   4:24:53   1:17:55 
245  MELLON Julien   B   4:25:04   1:18:06 
246  JUBEAU Maurice   D   4:26:23   1:19:25 
247  MAYOUSSE Gilles   D   4:26:23   1:19:25 
248  WERY Richard   E   4:26:55   1:19:57 
249  NOBLET Christian   D   4:28:19   1:21:21 
250  PELLIGRINI Renato   D   4:28:19   1:21:21 
251  SIMOULIN Pierre   D   4:29:25   1:22:27 
252  LACRAZ Jean Paul   D   4:29:25   1:22:27 
253  BASROGER Olivier   C   4:29:38   1:22:40 
254  MORAT Christian   C   4:29:51   1:22:53 
255  MADIES Jean Luc   D   4:29:51   1:22:53 
256  ALSINA Robert   D   4:31:47   1:24:49 
257  BONNARD Antonin   A   4:34:06   1:27:08 
258  GAGET Robert   E   4:34:06   1:27:08 
259  DUVERT Pascal   C   4:34:06   1:27:08 
260  GAGET Michel   E   4:34:06   1:27:08 
261  JACQUET Charles   E   4:35:28   1:28:30 
262  SINGER Thorsten   C   4:37:18   1:30:20 
263  TONDEREAU Bernard   D   4:37:18   1:30:20 
264  CARROUEE Bruno   C   4:37:18   1:30:20 
265  FILLARDET Eric   C   4:38:19   1:31:21 
266  VANTREPOL Patrick   C   4:38:19   1:31:21 
267  GUYON Denis   D   4:38:34   1:31:36 
268  DECOL Jean Yves   C   4:38:56   1:31:58 
269  COFFY André   D   4:39:37   1:32:39 
270  MIICHAUD Dominique   C   4:40:52   1:33:54 
271  VALLON Joël   D   4:41:27   1:34:29 
272  RENDU Gérard   D   4:43:57   1:36:59 
273  FOURNIER Philippe   C   4:43:57   1:36:59 
274  LAROCHETTE Hervé   C   4:44:45   1:37:47 
275      4:46:54   1:39:56 
276  PUGEAT Guillaume   B   4:46:54   1:39:56 
277  KIOK Hervé   C   4:48:28   1:41:30 
278  DEBRUYERE Stéphane   C   4:48:46   1:41:48 
279  CHANEL Pierre   C   4:49:54   1:42:56 
280  PICARD Xavier   B   4:49:54   1:42:56 
281  GUSMINI Bernard   C   4:50:51   1:43:53 
282  PY Nathalie   G   4:52:16   1:45:18 
283  DUFFAU Fabrice   C   4:52:16   1:45:18 
284  DUFOUR Roger   D   4:52:42   1:45:44 
285  TRANCHAND Alain   C   4:54:17   1:47:19 
286  COURAND Robert   C   4:54:17   1:47:19 
287  BLANCHOT Isabelle   G   4:55:16   1:48:18 
288  COLLOT Pascal   C   4:57:14   1:50:16 
289  OYSELET Jean   E   4:57:49   1:50:51 
290  SABATIER Olivier   C   4:59:31   1:52:33 
291  BETTINELLI Patrick   C   5:00:34   1:53:36 
292  VIVIEN Séverine   F   5:00:35   1:53:37 
293  ROSCAMP Philippe   B   5:01:47   1:54:49 
294  DUFOUR Guillaume   A   5:04:09   1:57:11 
295  MOREL Christian   C   5:04:46   1:57:48 
296  DE SOUSA José   D   5:04:57   1:57:59 
297  LEMAIRE Laurent   C   5:04:57   1:57:59 
298  MERCIER Pierre   D   5:05:23   1:58:25 
299  TURC Michel   E   5:05:49   1:58:51 
300  MARTIN Jean   E   5:06:36   1:59:38 
301  TARENNE Dominique   D   5:09:20   2:02:22 
302  SOUMAN Jean Louis   D   5:15:19   2:08:21 
303  LEONE Francis   C   5:20:39   2:13:41 
304  HUGHES Paul   C   5:20:39   2:13:41 
305  HIELARD Benoit   B   5:20:39   2:13:41 
306  CAUDERON Guy   C   5:20:39   2:13:41 

顶部 









顶部  
 私有区   作者版权 – 版权所有: 请点击 这里 查看!